createdAt,value
2022-11-20T00:01:34.047Z,6.80
2022-11-20T00:04:01.470Z,7.57
2022-11-20T00:06:29.615Z,6.87
2022-11-20T00:09:02.340Z,7.40
2022-11-20T00:11:31.137Z,7.00
2022-11-20T00:14:01.157Z,7.00
2022-11-20T00:16:31.820Z,7.67
2022-11-20T00:19:00.931Z,7.17
2022-11-20T00:21:29.597Z,6.97
2022-11-20T00:23:58.375Z,7.27
2022-11-20T00:26:29.795Z,7.20
2022-11-20T00:29:00.817Z,7.13
2022-11-20T00:31:28.877Z,7.57
2022-11-20T00:33:55.850Z,7.07
2022-11-20T00:36:26.523Z,7.33
2022-11-20T00:38:55.416Z,7.90
2022-11-20T00:41:22.953Z,8.73
2022-11-20T00:43:52.060Z,8.03
2022-11-20T00:46:24.851Z,8.30
2022-11-20T00:48:52.066Z,8.33
2022-11-20T00:51:22.318Z,8.13
2022-11-20T00:53:51.820Z,8.03
2022-11-20T00:56:20.615Z,8.17
2022-11-20T00:58:49.511Z,8.27
2022-11-20T01:01:27.436Z,8.13
2022-11-20T01:03:57.740Z,8.57
2022-11-20T01:06:37.236Z,7.80
2022-11-20T01:09:12.809Z,7.20
2022-11-20T01:11:48.574Z,8.40
2022-11-20T01:14:19.585Z,7.80
2022-11-20T01:16:50.472Z,8.23
2022-11-20T01:19:25.392Z,8.50
2022-11-20T01:21:56.267Z,8.33
2022-11-20T01:24:24.108Z,8.00
2022-11-20T01:26:52.445Z,7.93
2022-11-20T01:29:23.837Z,8.60
2022-11-20T01:31:52.511Z,8.00
2022-11-20T01:34:23.555Z,8.70
2022-11-20T01:36:55.701Z,8.67
2022-11-20T01:39:29.067Z,8.53
2022-11-20T01:42:32.238Z,8.53
2022-11-20T01:45:01.330Z,7.87
2022-11-20T01:47:45.934Z,7.77
2022-11-20T01:50:26.731Z,8.13
2022-11-20T01:53:00.875Z,8.10
2022-11-20T01:55:35.855Z,8.10
2022-11-20T01:58:03.923Z,8.57
2022-11-20T02:00:30.922Z,8.57
2022-11-20T02:03:13.401Z,8.40
2022-11-20T02:05:47.296Z,7.93
2022-11-20T02:08:14.232Z,8.10
2022-11-20T02:10:43.940Z,7.40
2022-11-20T02:13:31.952Z,7.47
2022-11-20T02:16:01.099Z,7.73
2022-11-20T02:18:28.775Z,8.13
2022-11-20T02:21:08.071Z,7.67
2022-11-20T02:24:12.635Z,8.13
2022-11-20T02:26:57.782Z,7.63
2022-11-20T02:30:01.071Z,8.20
2022-11-20T02:32:35.169Z,7.73
2022-11-20T02:35:30.962Z,7.90
2022-11-20T02:38:02.400Z,8.27
2022-11-20T02:40:32.912Z,8.60
2022-11-20T02:42:59.814Z,8.13
2022-11-20T02:45:27.094Z,7.47
2022-11-20T02:47:54.376Z,7.67
2022-11-20T02:50:21.467Z,7.67
2022-11-20T02:52:48.330Z,7.50
2022-11-20T02:55:15.290Z,7.40
2022-11-20T02:57:42.247Z,8.17
2022-11-20T03:00:10.179Z,7.50
2022-11-20T03:02:37.565Z,7.57
2022-11-20T03:05:04.819Z,7.70
2022-11-20T03:07:34.205Z,7.43
2022-11-20T03:10:04.581Z,7.30
2022-11-20T03:12:34.599Z,7.47
2022-11-20T03:15:01.518Z,7.20
2022-11-20T03:17:31.820Z,7.00
2022-11-20T03:20:03.357Z,6.37
2022-11-20T03:22:31.244Z,7.63
2022-11-20T03:25:01.085Z,6.60
2022-11-20T03:27:30.028Z,6.67
2022-11-20T03:29:59.389Z,6.20
2022-11-20T03:32:26.288Z,5.90
2022-11-20T03:34:53.158Z,7.07
2022-11-20T03:37:22.524Z,5.80
2022-11-20T03:39:49.419Z,5.97
2022-11-20T03:42:39.578Z,6.80
2022-11-20T03:45:07.105Z,5.80
2022-11-20T03:47:34.061Z,6.10
2022-11-20T03:50:00.923Z,6.03
2022-11-20T03:52:27.832Z,5.90
2022-11-20T03:54:54.694Z,5.70
2022-11-20T03:57:21.704Z,5.80
2022-11-20T03:59:53.104Z,5.70
2022-11-20T04:02:22.080Z,6.27
2022-11-20T04:04:48.926Z,6.30
2022-11-20T04:07:20.566Z,5.63
2022-11-20T04:09:49.701Z,5.43
2022-11-20T04:12:16.572Z,5.40
2022-11-20T04:14:43.446Z,5.67
2022-11-20T04:17:12.763Z,6.30
2022-11-20T04:19:44.411Z,5.67
2022-11-20T04:22:16.170Z,5.30
2022-11-20T04:24:43.050Z,5.83
2022-11-20T04:27:12.196Z,5.80
2022-11-20T04:29:41.705Z,5.37
2022-11-20T04:32:13.233Z,6.23
2022-11-20T04:34:40.071Z,5.97
2022-11-20T04:37:06.958Z,5.73
2022-11-20T04:39:33.801Z,6.93
2022-11-20T04:42:18.926Z,6.40
2022-11-20T04:44:45.784Z,6.43
2022-11-20T04:47:12.660Z,6.90
2022-11-20T04:49:42.701Z,6.53
2022-11-20T04:52:09.641Z,6.43
2022-11-20T04:54:36.510Z,6.07
2022-11-20T04:57:10.002Z,6.13
2022-11-20T04:59:44.496Z,6.13
2022-11-20T05:02:12.728Z,7.20
2022-11-20T05:04:39.567Z,6.70
2022-11-20T05:07:06.557Z,7.10
2022-11-20T05:09:35.844Z,7.07
2022-11-20T05:12:04.939Z,6.67
2022-11-20T05:14:31.803Z,7.07
2022-11-20T05:17:00.954Z,6.43
2022-11-20T05:19:30.794Z,6.97
2022-11-20T05:21:57.975Z,7.20
2022-11-20T05:24:27.134Z,6.70
2022-11-20T05:26:56.554Z,7.60
2022-11-20T05:29:23.631Z,7.43
2022-11-20T05:31:50.732Z,7.97
2022-11-20T05:34:17.573Z,8.17
2022-11-20T05:36:44.446Z,8.13
2022-11-20T05:39:11.382Z,7.97
2022-11-20T05:41:40.454Z,8.00
2022-11-20T05:44:07.337Z,7.63
2022-11-20T05:46:36.420Z,7.80
2022-11-20T05:49:03.546Z,8.13
2022-11-20T05:51:30.424Z,7.83
2022-11-20T05:54:00.574Z,7.93
2022-11-20T05:56:27.566Z,9.00
2022-11-20T05:58:54.500Z,8.70
2022-11-20T06:01:26.777Z,8.70
2022-11-20T06:03:54.656Z,9.53
2022-11-20T06:06:22.238Z,9.90
2022-11-20T06:08:50.017Z,10.17
2022-11-20T06:11:17.935Z,9.77
2022-11-20T06:13:48.069Z,9.67
2022-11-20T06:16:18.371Z,10.60
2022-11-20T06:18:45.744Z,9.50
2022-11-20T06:21:19.204Z,9.40
2022-11-20T06:23:46.557Z,10.50
2022-11-20T06:26:26.226Z,9.80
2022-11-20T06:28:57.144Z,10.73
2022-11-20T06:31:26.264Z,10.40
2022-11-20T06:33:53.801Z,10.37
2022-11-20T06:36:23.662Z,11.40
2022-11-20T06:38:50.651Z,10.90
2022-11-20T06:41:23.843Z,10.90
2022-11-20T06:43:51.373Z,10.50
2022-11-20T06:46:22.316Z,11.53
2022-11-20T06:48:50.716Z,12.07
2022-11-20T06:51:18.851Z,11.73
2022-11-20T06:53:45.967Z,12.40
2022-11-20T06:56:22.449Z,11.27
2022-11-20T06:58:51.632Z,10.77
2022-11-20T07:01:21.036Z,11.87
2022-11-20T07:03:54.449Z,11.73
2022-11-20T07:06:21.772Z,12.70
2022-11-20T07:08:48.680Z,12.03
2022-11-20T07:11:15.537Z,12.07
2022-11-20T07:13:42.508Z,13.33
2022-11-20T07:16:10.047Z,12.70
2022-11-20T07:18:41.096Z,12.00
2022-11-20T07:21:11.466Z,12.40
2022-11-20T07:23:38.640Z,12.10
2022-11-20T07:26:11.546Z,13.33
2022-11-20T07:28:39.137Z,12.67
2022-11-20T07:31:08.797Z,13.57
2022-11-20T07:33:35.736Z,13.60
2022-11-20T07:36:03.040Z,12.43
2022-11-20T07:38:30.286Z,13.80
2022-11-20T07:41:04.205Z,13.10
2022-11-20T07:43:37.152Z,13.17
2022-11-20T07:46:07.963Z,13.23
2022-11-20T07:48:37.429Z,12.40
2022-11-20T07:51:06.767Z,12.27
2022-11-20T07:53:36.145Z,12.73
2022-11-20T07:56:03.909Z,12.00
2022-11-20T07:58:33.733Z,12.70
2022-11-20T08:01:06.478Z,13.20
2022-11-20T08:03:33.780Z,11.90
2022-11-20T08:06:02.161Z,11.70
2022-11-20T08:08:33.913Z,12.30
2022-11-20T08:11:21.374Z,11.50
2022-11-20T08:14:06.472Z,12.73
2022-11-20T08:16:33.338Z,12.20
2022-11-20T08:19:00.222Z,10.60
2022-11-20T08:21:27.250Z,11.77
2022-11-20T08:23:57.233Z,11.90
2022-11-20T08:26:24.362Z,11.63
2022-11-20T08:28:55.683Z,12.30
2022-11-20T08:31:25.876Z,12.17
2022-11-20T08:33:57.638Z,10.83
2022-11-20T08:36:27.018Z,12.33
2022-11-20T08:38:56.420Z,10.50
2022-11-20T08:41:27.708Z,11.73
2022-11-20T08:44:02.935Z,11.30
2022-11-20T08:46:36.367Z,10.50
2022-11-20T08:49:07.132Z,11.23
2022-11-20T08:51:34.679Z,11.50
2022-11-20T08:54:04.956Z,11.27
2022-11-20T08:56:35.611Z,10.57
2022-11-20T09:01:51.651Z,9.90
2022-11-20T09:10:09.799Z,9.73
2022-11-20T09:12:35.605Z,10.57
2022-11-20T09:15:02.450Z,9.83
2022-11-20T09:17:31.394Z,10.10
2022-11-20T09:19:58.262Z,7.57
2022-11-20T09:22:25.161Z,7.67
2022-11-20T09:24:52.384Z,7.53
2022-11-20T09:27:22.613Z,6.77
2022-11-20T09:29:49.632Z,6.50
2022-11-20T09:32:16.553Z,7.33
2022-11-20T09:34:43.597Z,8.30
2022-11-20T09:37:10.601Z,8.47
2022-11-20T09:39:40.439Z,7.70
2022-11-20T09:42:30.890Z,8.00
2022-11-20T09:45:34.925Z,7.97
2022-11-20T09:48:14.249Z,7.90
2022-11-20T09:51:05.214Z,8.90
2022-11-20T09:54:23.114Z,9.20
2022-11-20T09:57:38.346Z,8.50
2022-11-20T10:00:11.539Z,9.10
2022-11-20T10:03:07.424Z,9.43
2022-11-20T10:05:48.661Z,8.10
2022-11-20T10:08:18.611Z,9.00
2022-11-20T10:11:11.008Z,8.57
2022-11-20T10:14:01.934Z,8.00
2022-11-20T10:16:46.209Z,8.10
2022-11-20T10:19:56.762Z,8.23
2022-11-20T10:23:00.679Z,8.10
2022-11-20T10:25:41.754Z,7.47
2022-11-20T10:28:59.854Z,6.57
2022-11-20T10:31:37.571Z,7.67
2022-11-20T10:34:32.621Z,9.03
2022-11-20T10:37:22.015Z,7.53
2022-11-20T10:39:54.511Z,8.23
2022-11-20T10:42:31.273Z,8.30
2022-11-20T10:45:26.569Z,8.17
2022-11-20T10:48:27.267Z,7.17
2022-11-20T10:51:21.151Z,8.30
2022-11-20T10:54:13.162Z,7.87
2022-11-20T10:56:51.802Z,7.47
2022-11-20T10:59:54.969Z,6.40
2022-11-20T11:02:24.897Z,6.87
2022-11-20T11:04:54.210Z,7.70
2022-11-20T11:07:41.458Z,7.83
2022-11-20T11:10:42.310Z,7.13
2022-11-20T11:13:28.134Z,6.33
2022-11-20T11:16:00.122Z,7.37
2022-11-20T11:18:34.926Z,7.13
2022-11-20T11:21:04.708Z,6.90
2022-11-20T11:23:42.078Z,7.60
2022-11-20T11:26:23.353Z,7.27
2022-11-20T11:29:04.935Z,7.57
2022-11-20T11:31:36.348Z,6.97
2022-11-20T11:34:07.227Z,6.77
2022-11-20T11:36:36.568Z,5.70
2022-11-20T11:39:12.896Z,5.50
2022-11-20T11:41:39.844Z,6.10
2022-11-20T11:44:39.873Z,4.87
2022-11-20T11:47:23.600Z,5.27
2022-11-20T11:50:15.385Z,4.93
2022-11-20T11:52:58.004Z,5.10
2022-11-20T11:55:54.250Z,4.67
2022-11-20T11:58:46.517Z,4.30
2022-11-20T12:01:19.110Z,4.47
2022-11-20T12:04:02.711Z,4.17
2022-11-20T12:06:32.508Z,4.43
2022-11-20T12:09:06.727Z,4.50
2022-11-20T12:11:58.043Z,4.30
2022-11-20T12:14:36.639Z,4.50
2022-11-20T12:17:06.064Z,4.97
2022-11-20T12:19:36.114Z,3.73
2022-11-20T12:22:42.176Z,3.73
2022-11-20T12:25:18.264Z,5.67
2022-11-20T12:27:54.344Z,4.20
2022-11-20T12:30:23.275Z,3.90
2022-11-20T12:33:14.645Z,4.97
2022-11-20T12:36:15.312Z,4.60
2022-11-20T12:39:09.958Z,4.40
2022-11-20T12:42:44.374Z,5.20
2022-11-20T12:45:23.120Z,5.43
2022-11-20T12:47:55.924Z,5.00
2022-11-20T12:51:14.108Z,5.10
2022-11-20T12:54:17.956Z,5.57
2022-11-20T12:56:51.644Z,6.17
2022-11-20T12:59:31.754Z,7.60
2022-11-20T13:02:20.948Z,7.03
2022-11-20T13:05:09.523Z,6.57
2022-11-20T13:07:37.569Z,6.50
2022-11-20T13:10:12.905Z,6.77
2022-11-20T13:12:56.206Z,6.43
2022-11-20T13:15:47.775Z,5.87
2022-11-20T13:18:15.100Z,5.77
2022-11-20T13:20:50.530Z,5.50
2022-11-20T13:23:31.070Z,5.47
2022-11-20T13:26:07.582Z,5.80
2022-11-20T13:28:37.602Z,5.57
2022-11-20T13:31:10.859Z,6.03
2022-11-20T13:33:40.119Z,6.03
2022-11-20T13:36:23.176Z,6.17
2022-11-20T13:38:59.853Z,5.70
2022-11-20T13:41:38.739Z,4.80
2022-11-20T13:44:23.147Z,5.43
2022-11-20T13:46:50.190Z,5.67
2022-11-20T13:49:45.808Z,5.47
2022-11-20T13:52:36.833Z,5.83
2022-11-20T13:55:40.820Z,5.27
2022-11-20T13:58:44.753Z,5.70
2022-11-20T14:01:15.320Z,4.90
2022-11-20T14:06:39.683Z,4.83
2022-11-20T14:09:13.812Z,4.27
2022-11-20T14:11:50.675Z,3.90
2022-11-20T14:14:23.646Z,3.80
2022-11-20T14:16:52.240Z,4.37
2022-11-20T14:19:24.693Z,3.73
2022-11-20T14:22:19.631Z,4.10
2022-11-20T14:24:48.308Z,4.80
2022-11-20T14:27:21.921Z,4.60
2022-11-20T14:29:53.587Z,3.90
2022-11-20T14:32:23.291Z,4.70
2022-11-20T14:34:51.776Z,5.27
2022-11-20T14:37:24.173Z,5.53
2022-11-20T14:39:54.791Z,5.07
2022-11-20T14:42:28.320Z,4.90
2022-11-20T14:45:01.004Z,4.93
2022-11-20T14:47:32.164Z,4.60
2022-11-20T14:50:08.625Z,4.37
2022-11-20T14:52:36.829Z,4.70
2022-11-20T14:55:06.331Z,4.90
2022-11-20T14:57:37.570Z,4.70
2022-11-20T15:00:11.513Z,4.80
2022-11-20T15:02:47.470Z,5.33
2022-11-20T15:05:17.388Z,4.97
2022-11-20T15:07:52.426Z,6.03
2022-11-20T15:10:27.827Z,5.67
2022-11-20T15:13:00.969Z,5.03
2022-11-20T15:15:46.535Z,5.70
2022-11-20T15:18:24.800Z,5.70
2022-11-20T15:20:52.854Z,4.53
2022-11-20T15:23:20.610Z,5.40
2022-11-20T15:25:49.464Z,4.90
2022-11-20T15:28:32.872Z,5.70
2022-11-20T15:31:03.697Z,5.00
2022-11-20T15:33:32.780Z,6.83
2022-11-20T15:36:00.644Z,7.63
2022-11-20T15:38:27.719Z,7.20
2022-11-20T15:40:55.118Z,7.67
2022-11-20T15:43:25.045Z,5.60
2022-11-20T15:46:16.715Z,5.90
2022-11-20T15:48:55.904Z,5.60
2022-11-20T15:51:35.549Z,5.90
2022-11-20T15:54:13.833Z,7.13
2022-11-20T15:56:42.902Z,7.13
2022-11-20T15:59:10.577Z,8.10
2022-11-20T16:01:38.258Z,7.03
2022-11-20T16:04:14.231Z,7.00
2022-11-20T16:06:44.569Z,7.43
2022-11-20T16:09:12.845Z,7.93
2022-11-20T16:11:40.260Z,8.17
2022-11-20T16:14:26.551Z,8.40
2022-11-20T16:16:56.044Z,7.83
2022-11-20T16:19:23.435Z,7.70
2022-11-20T16:21:51.267Z,7.10
2022-11-20T16:24:19.002Z,6.07
2022-11-20T16:26:46.018Z,6.00
2022-11-20T16:29:12.964Z,6.17
2022-11-20T16:31:42.835Z,7.17
2022-11-20T16:34:24.043Z,6.73
2022-11-20T16:36:53.953Z,5.67
2022-11-20T16:39:23.990Z,6.30
2022-11-20T16:41:51.074Z,8.00
2022-11-20T16:44:17.958Z,7.30
2022-11-20T16:46:44.834Z,7.83
2022-11-20T16:49:15.123Z,7.90
2022-11-20T16:51:44.683Z,8.73
2022-11-20T16:54:15.042Z,8.53
2022-11-20T16:56:51.896Z,9.27
2022-11-20T16:59:21.385Z,8.97
2022-11-20T17:01:48.464Z,8.47
2022-11-20T17:04:18.698Z,9.20
2022-11-20T17:06:46.043Z,10.00
2022-11-20T17:09:13.881Z,10.30
2022-11-20T17:11:43.348Z,9.63
2022-11-20T17:14:12.483Z,9.67
2022-11-20T17:16:39.737Z,9.30
2022-11-20T17:19:09.329Z,9.50
2022-11-20T17:21:39.721Z,9.47
2022-11-20T17:24:12.416Z,9.80
2022-11-20T17:26:41.827Z,10.17
2022-11-20T17:29:13.549Z,10.00
2022-11-20T17:31:41.209Z,9.60
2022-11-20T17:34:14.320Z,10.50
2022-11-20T17:36:46.138Z,9.80
2022-11-20T17:39:17.836Z,9.50
2022-11-20T17:42:08.563Z,10.10
2022-11-20T17:44:38.220Z,11.20
2022-11-20T17:47:05.293Z,10.53
2022-11-20T17:49:34.285Z,12.00
2022-11-20T17:52:01.186Z,12.10
2022-11-20T17:54:30.577Z,13.40
2022-11-20T17:57:18.287Z,13.80
2022-11-20T17:59:45.270Z,14.83
2022-11-20T18:02:12.284Z,14.33
2022-11-20T18:04:39.482Z,15.10
2022-11-20T18:07:06.531Z,14.73
2022-11-20T18:09:33.513Z,15.00
2022-11-20T18:12:00.410Z,15.50
2022-11-20T18:14:32.567Z,18.03
2022-11-20T18:17:21.065Z,18.37
2022-11-20T18:20:07.265Z,17.10
2022-11-20T18:22:36.863Z,17.77
2022-11-20T18:25:04.190Z,17.10
2022-11-20T18:27:39.171Z,17.43
2022-11-20T18:30:11.367Z,18.20
2022-11-20T18:32:38.908Z,18.00
2022-11-20T18:35:14.936Z,19.37
2022-11-20T18:37:54.894Z,18.43
2022-11-20T18:40:24.528Z,16.87
2022-11-20T18:43:27.289Z,19.10
2022-11-20T18:46:05.189Z,20.40
2022-11-20T18:48:32.715Z,18.93
2022-11-20T18:51:19.510Z,18.47
2022-11-20T18:53:49.315Z,18.40
2022-11-20T18:56:16.307Z,18.87
2022-11-20T18:58:45.497Z,20.03
2022-11-20T19:01:12.571Z,19.03
2022-11-20T19:03:39.686Z,19.50
2022-11-20T19:06:13.279Z,19.17
2022-11-20T19:08:43.409Z,19.30
2022-11-20T19:11:13.332Z,18.27
2022-11-20T19:13:40.741Z,18.30
2022-11-20T19:16:14.693Z,19.40
2022-11-20T19:18:45.974Z,20.37
2022-11-20T19:21:23.423Z,19.00
2022-11-20T19:24:02.172Z,19.10
2022-11-20T19:26:29.702Z,19.13
2022-11-20T19:28:57.060Z,19.43
2022-11-20T19:31:31.579Z,18.90
2022-11-20T19:34:02.526Z,19.53
2022-11-20T19:36:33.067Z,18.97
2022-11-20T19:39:00.709Z,18.00
2022-11-20T19:41:33.079Z,19.43
2022-11-20T19:44:08.551Z,19.30
2022-11-20T19:46:39.479Z,19.73
2022-11-20T19:49:11.749Z,19.57
2022-11-20T19:51:45.543Z,20.80
2022-11-20T19:54:15.055Z,19.50
2022-11-20T19:56:42.092Z,20.13
2022-11-20T19:59:11.419Z,18.33
2022-11-20T20:01:41.633Z,18.23
2022-11-20T20:04:08.752Z,23.00
2022-11-20T20:06:38.770Z,19.77
2022-11-20T20:09:11.864Z,19.53
2022-11-20T20:11:40.699Z,20.03
2022-11-20T20:14:18.273Z,20.23
2022-11-20T20:16:46.238Z,21.13
2022-11-20T20:19:18.453Z,21.60
2022-11-20T20:21:45.448Z,20.20
2022-11-20T20:24:12.512Z,22.90
2022-11-20T20:26:39.897Z,22.97
2022-11-20T20:29:07.110Z,22.07
2022-11-20T20:31:35.254Z,22.77
2022-11-20T20:34:05.172Z,21.70
2022-11-20T20:36:33.057Z,21.20
2022-11-20T20:39:00.175Z,22.70
2022-11-20T20:41:29.741Z,21.37
2022-11-20T20:44:15.839Z,19.90
2022-11-20T20:46:45.211Z,20.10
2022-11-20T20:49:13.147Z,20.87
2022-11-20T20:51:40.228Z,21.93
2022-11-20T20:54:09.324Z,21.30
2022-11-20T20:56:38.966Z,20.67
2022-11-20T20:59:06.428Z,21.30
2022-11-20T21:01:35.712Z,20.30
2022-11-20T21:04:02.678Z,22.30
2022-11-20T21:06:29.613Z,22.80
2022-11-20T21:08:57.550Z,21.47
2022-11-20T21:11:30.091Z,22.40
2022-11-20T21:13:59.428Z,22.30
2022-11-20T21:16:40.894Z,24.33
2022-11-20T21:19:08.320Z,23.03
2022-11-20T21:21:58.941Z,23.83
2022-11-20T21:24:36.571Z,22.90
2022-11-20T21:27:07.395Z,22.43
2022-11-20T21:29:34.271Z,24.97
2022-11-20T21:32:03.504Z,23.57
2022-11-20T21:34:30.808Z,21.10
2022-11-20T21:36:57.746Z,22.40
2022-11-20T21:39:24.802Z,21.70
2022-11-20T21:41:54.298Z,23.60
2022-11-20T21:44:31.073Z,27.87
2022-11-20T21:46:58.667Z,27.70
2022-11-20T21:49:25.816Z,23.30
2022-11-20T21:51:55.033Z,22.00
2022-11-20T21:54:25.754Z,24.20
2022-11-20T21:56:56.087Z,26.53
2022-11-20T21:59:23.492Z,29.17
2022-11-20T22:01:54.004Z,26.60
2022-11-20T22:04:22.811Z,27.57
2022-11-20T22:06:52.129Z,26.80
2022-11-20T22:09:19.057Z,22.90
2022-11-20T22:11:45.936Z,24.97
2022-11-20T22:14:21.935Z,31.10
2022-11-20T22:16:53.627Z,30.40
2022-11-20T22:19:24.259Z,23.00
2022-11-20T22:21:51.820Z,23.80
2022-11-20T22:24:21.595Z,26.20
2022-11-20T22:26:51.673Z,22.70
2022-11-20T22:29:21.166Z,24.17
2022-11-20T22:31:51.568Z,23.00
2022-11-20T22:34:18.428Z,26.70
2022-11-20T22:36:45.654Z,27.80
2022-11-20T22:39:12.679Z,23.30
2022-11-20T22:41:39.692Z,21.70
2022-11-20T22:44:08.038Z,24.90
2022-11-20T22:46:39.921Z,23.23
2022-11-20T22:49:08.771Z,27.97
2022-11-20T22:51:39.067Z,29.63
2022-11-20T22:54:09.777Z,28.03
2022-11-20T22:56:36.709Z,24.30
2022-11-20T22:59:08.571Z,28.40
2022-11-20T23:01:38.998Z,22.33
2022-11-20T23:04:10.175Z,21.33
2022-11-20T23:06:39.707Z,23.17
2022-11-20T23:09:11.489Z,22.43
2022-11-20T23:11:40.944Z,22.90
2022-11-20T23:14:16.865Z,23.70
2022-11-20T23:16:43.826Z,21.10
2022-11-20T23:19:14.093Z,22.00
2022-11-20T23:21:42.750Z,22.37
2022-11-20T23:24:28.112Z,23.53
2022-11-20T23:26:57.392Z,23.00
2022-11-20T23:29:24.353Z,22.07
2022-11-20T23:31:51.233Z,22.37
2022-11-20T23:34:20.618Z,23.13
2022-11-20T23:36:49.709Z,25.13
2022-11-20T23:39:16.819Z,20.67
2022-11-20T23:41:45.998Z,24.23
2022-11-20T23:44:12.911Z,22.67
2022-11-20T23:46:41.848Z,20.57
2022-11-20T23:49:11.388Z,24.37
2022-11-20T23:51:38.255Z,21.67
2022-11-20T23:54:05.252Z,22.87
2022-11-20T23:56:32.177Z,20.57
2022-11-20T23:58:59.174Z,29.33
